Time;durP1;ratioP1;P1;durP2;ratioP2;P2;SDS_P1;SDS_P2;PMS_P1;PMS_P2;Temp;Humidity;BMP_temperature;BMP_pressure;BME280_temperature;BME280_humidity;BME280_pressure;Samples;Min_cycle;Max_cycle;Signal;HPM_P1;HPM_P2
2022/11/22 00:00:45;;;;;;;4.57;1.73;;;5.80;88.30;;;;;;5046837;28;20056;-60
2022/11/22 00:03:12;;;;;;;3.60;1.40;;;5.80;88.30;;;;;;5052353;28;20492;-60
2022/11/22 00:05:39;;;;;;;4.03;1.60;;;5.80;88.40;;;;;;5052406;28;20048;-60
2022/11/22 00:08:10;;;;;;;4.28;1.48;;;5.80;88.40;;;;;;5053480;28;20052;-58
2022/11/22 00:10:36;;;;;;;3.72;1.70;;;5.80;88.40;;;;;;5049703;28;20040;-61
2022/11/22 00:13:04;;;;;;;5.38;1.60;;;5.80;88.30;;;;;;5050712;28;20433;-61
2022/11/22 00:15:33;;;;;;;3.40;1.27;;;5.80;88.30;;;;;;5048348;28;20399;-68
2022/11/22 00:18:01;;;;;;;3.90;1.50;;;5.80;88.40;;;;;;5052285;28;20473;-67
2022/11/22 00:20:28;;;;;;;3.90;1.35;;;5.80;88.50;;;;;;5049845;28;20073;-68
2022/11/22 00:22:57;;;;;;;3.70;1.70;;;5.80;88.30;;;;;;5048104;28;20052;-68
2022/11/22 00:25:25;;;;;;;4.95;2.08;;;5.80;88.30;;;;;;5044470;28;20037;-66
2022/11/22 00:27:56;;;;;;;8.80;1.80;;;5.80;88.40;;;;;;5048071;28;20403;-67
2022/11/22 00:30:29;;;;;;;4.53;1.48;;;5.80;88.30;;;;;;5047408;28;20181;-67
2022/11/22 00:33:09;;;;;;;3.38;1.38;;;5.80;88.20;;;;;;5048344;28;20134;-67
2022/11/22 00:35:39;;;;;;;5.43;2.17;;;5.80;88.20;;;;;;5049923;28;20048;-68
2022/11/22 00:38:06;;;;;;;6.10;1.95;;;5.80;88.20;;;;;;5047077;28;20130;-67
2022/11/22 00:40:33;;;;;;;5.72;1.95;;;5.80;88.20;;;;;;5047052;28;20695;-67
2022/11/22 00:43:00;;;;;;;5.82;1.90;;;5.80;88.40;;;;;;5046291;28;20066;-67
2022/11/22 00:45:27;;;;;;;6.18;2.05;;;5.80;88.50;;;;;;5046108;28;20076;-68
2022/11/22 00:47:54;;;;;;;4.32;1.73;;;5.80;88.50;;;;;;5047230;28;20044;-68
2022/11/22 00:50:22;;;;;;;4.90;1.60;;;5.80;88.50;;;;;;5048602;28;20044;-59
2022/11/22 00:52:49;;;;;;;6.18;1.88;;;5.80;88.60;;;;;;5047007;28;20053;-59
2022/11/22 00:55:16;;;;;;;5.15;2.00;;;5.80;88.40;;;;;;5049277;28;20041;-59
2022/11/22 00:57:43;;;;;;;5.45;1.75;;;5.80;88.40;;;;;;5048972;28;20411;-59
2022/11/22 01:00:12;;;;;;;5.40;1.83;;;5.80;88.50;;;;;;5045332;28;20132;-57
2022/11/22 01:02:39;;;;;;;7.15;1.98;;;5.80;88.50;;;;;;5045071;28;20037;-58
2022/11/22 01:05:06;;;;;;;2.78;1.60;;;5.80;88.40;;;;;;5046212;28;20040;-59
2022/11/22 01:07:40;;;;;;;4.40;1.90;;;5.80;88.40;;;;;;5047109;28;20168;-60
2022/11/22 01:10:07;;;;;;;5.20;2.05;;;5.80;88.40;;;;;;5028319;28;20043;-61
2022/11/22 01:12:34;;;;;;;5.45;1.70;;;5.80;88.30;;;;;;5044581;28;20068;-58
2022/11/22 01:15:01;;;;;;;5.80;2.10;;;5.80;88.50;;;;;;5052385;28;20055;-60
2022/11/22 01:17:30;;;;;;;4.45;2.00;;;5.80;88.60;;;;;;5045895;28;20048;-60
2022/11/22 01:19:56;;;;;;;5.43;1.95;;;5.80;88.40;;;;;;5045168;28;20502;-60
2022/11/22 01:22:23;;;;;;;6.05;2.08;;;5.80;88.30;;;;;;5044047;28;20522;-61
2022/11/22 01:24:52;;;;;;;5.38;2.03;;;5.80;88.30;;;;;;5051530;28;20045;-60
2022/11/22 01:27:19;;;;;;;5.32;2.30;;;5.80;88.30;;;;;;5047745;28;20118;-62
2022/11/22 01:29:46;;;;;;;4.65;2.22;;;5.80;88.40;;;;;;5040458;28;20107;-59
2022/11/22 01:32:13;;;;;;;5.60;2.20;;;5.80;88.40;;;;;;5048514;28;20488;-61
2022/11/22 01:34:40;;;;;;;4.88;2.10;;;5.80;88.40;;;;;;5048849;28;20056;-60
2022/11/22 01:37:07;;;;;;;6.20;1.77;;;5.80;88.30;;;;;;5050617;28;20142;-59
2022/11/22 01:39:34;;;;;;;6.43;2.10;;;5.80;88.20;;;;;;5047386;28;20052;-59
2022/11/22 01:42:05;;;;;;;7.53;2.20;;;5.80;88.20;;;;;;5051429;28;20060;-60
2022/11/22 01:44:33;;;;;;;7.95;2.65;;;5.80;88.30;;;;;;5049427;28;20041;-59
2022/11/22 01:47:03;;;;;;;4.90;2.03;;;5.80;88.30;;;;;;5045875;28;20124;-59
2022/11/22 01:49:34;;;;;;;4.32;1.90;;;5.80;88.30;;;;;;5050185;28;20044;-59
2022/11/22 01:52:02;;;;;;;;;;;5.80;88.20;;;;;;5048322;28;20055;-60
2022/11/22 01:54:33;;;;;;;5.20;2.25;;;5.80;88.20;;;;;;5048832;28;20401;-59
2022/11/22 01:57:06;;;;;;;6.53;2.50;;;5.80;88.20;;;;;;5048652;28;20055;-60
2022/11/22 01:59:36;;;;;;;5.03;2.10;;;5.80;88.30;;;;;;5047661;28;20424;-60
2022/11/22 02:02:03;;;;;;;6.00;1.87;;;5.80;88.20;;;;;;5034039;28;20102;-60
2022/11/22 02:04:32;;;;;;;4.45;2.03;;;5.90;88.20;;;;;;5047683;28;20071;-61
2022/11/22 02:07:05;;;;;;;6.15;2.28;;;5.80;88.30;;;;;;5048411;28;20068;-60
2022/11/22 02:09:32;;;;;;;6.03;2.30;;;5.80;88.40;;;;;;5049199;28;20068;-61
2022/11/22 02:12:05;;;;;;;6.10;2.17;;;5.80;88.50;;;;;;5044013;28;20045;-60
2022/11/22 02:14:33;;;;;;;4.85;2.00;;;5.80;88.50;;;;;;5044351;28;20080;-59
2022/11/22 02:17:00;;;;;;;4.35;2.15;;;5.80;88.40;;;;;;5046004;28;20148;-71
2022/11/22 02:19:37;;;;;;;4.80;2.40;;;5.90;88.50;;;;;;5044694;28;20048;-72
2022/11/22 02:22:12;;;;;;;5.05;2.30;;;5.80;88.60;;;;;;5048006;28;20048;-71
2022/11/22 02:24:44;;;;;;;4.15;1.95;;;5.90;88.50;;;;;;5048049;28;20053;-71
2022/11/22 02:27:13;;;;;;;5.53;2.13;;;5.90;88.50;;;;;;5048787;28;20052;-72
2022/11/22 02:29:40;;;;;;;4.60;1.98;;;5.90;88.60;;;;;;5042282;28;20041;-71
2022/11/22 02:32:06;;;;;;;4.95;1.90;;;5.90;88.70;;;;;;5045897;28;20064;-71
2022/11/22 02:34:42;;;;;;;4.20;2.10;;;5.90;88.60;;;;;;5048162;28;20506;-72
2022/11/22 02:37:10;;;;;;;6.00;2.15;;;5.90;88.60;;;;;;5046567;28;20036;-60
2022/11/22 02:39:38;;;;;;;5.60;2.30;;;5.90;88.60;;;;;;5045785;28;20057;-60
2022/11/22 02:42:05;;;;;;;5.50;2.88;;;5.90;88.60;;;;;;5046262;28;20071;-66
2022/11/22 02:44:33;;;;;;;5.15;2.30;;;5.90;88.90;;;;;;5045143;28;20049;-65
2022/11/22 02:47:00;;;;;;;3.38;1.83;;;5.90;89.00;;;;;;5043190;28;20053;-65
2022/11/22 02:49:28;;;;;;;5.85;2.15;;;5.90;89.00;;;;;;5044435;28;20175;-65
2022/11/22 02:51:55;;;;;;;4.53;1.90;;;5.90;89.10;;;;;;5047693;28;20044;-65
2022/11/22 02:54:22;;;;;;;4.97;2.45;;;5.90;88.90;;;;;;5047917;28;20091;-64
2022/11/22 02:56:49;;;;;;;3.88;2.30;;;5.90;89.10;;;;;;5049005;28;20048;-59
2022/11/22 02:59:16;;;;;;;3.80;2.08;;;5.90;89.20;;;;;;5046031;28;20072;-60
2022/11/22 03:01:45;;;;;;;4.22;2.22;;;5.90;89.20;;;;;;5044521;28;20399;-60
2022/11/22 03:04:23;;;;;;;5.43;2.38;;;5.90;89.30;;;;;;5047890;28;20136;-61
2022/11/22 03:06:51;;;;;;;5.18;2.40;;;5.90;89.30;;;;;;5047935;28;20049;-62
2022/11/22 03:09:18;;;;;;;5.25;2.80;;;5.90;89.30;;;;;;5046507;28;20060;-63
2022/11/22 03:11:46;;;;;;;5.38;2.50;;;5.90;89.40;;;;;;5047338;28;20126;-62
2022/11/22 03:14:14;;;;;;;4.78;2.53;;;5.90;89.50;;;;;;5044693;28;20107;-63
2022/11/22 03:16:45;;;;;;;5.13;2.38;;;5.90;89.50;;;;;;5045404;28;20422;-62
2022/11/22 03:19:13;;;;;;;4.43;2.22;;;5.90;89.20;;;;;;5050193;28;20141;-64
2022/11/22 03:21:42;;;;;;;4.93;2.22;;;5.90;89.40;;;;;;5049710;28;20045;-62
2022/11/22 03:24:10;;;;;;;4.32;2.50;;;5.90;89.50;;;;;;5047181;28;20136;-62
2022/11/22 03:26:38;;;;;;;4.70;2.13;;;5.90;89.40;;;;;;5046382;28;20419;-62
2022/11/22 03:29:05;;;;;;;4.05;2.10;;;5.90;89.30;;;;;;5044633;28;20041;-63
2022/11/22 03:31:32;;;;;;;4.57;2.47;;;5.90;89.30;;;;;;5047226;28;20047;-62
2022/11/22 03:34:00;;;;;;;5.28;2.42;;;5.90;89.70;;;;;;5045563;28;20160;-60
2022/11/22 03:36:28;;;;;;;5.43;2.80;;;5.90;89.80;;;;;;5044730;28;20045;-61
2022/11/22 03:38:54;;;;;;;4.80;2.50;;;5.90;89.70;;;;;;5049540;28;20136;-61
2022/11/22 03:41:21;;;;;;;5.07;2.63;;;5.90;89.70;;;;;;5045436;28;20127;-68
2022/11/22 03:43:48;;;;;;;4.50;2.47;;;5.90;89.70;;;;;;5048131;28;20077;-67
2022/11/22 03:46:15;;;;;;;4.85;2.35;;;5.90;89.30;;;;;;5046595;28;20037;-67
2022/11/22 03:48:42;;;;;;;6.65;2.80;;;5.90;89.30;;;;;;5047620;28;20041;-69
2022/11/22 03:51:11;;;;;;;5.20;2.50;;;5.90;89.60;;;;;;5044787;28;20507;-68
2022/11/22 03:53:38;;;;;;;5.88;2.85;;;5.90;89.70;;;;;;5046270;28;20393;-68
2022/11/22 03:56:05;;;;;;;5.10;2.42;;;5.90;89.80;;;;;;5043007;28;20041;-68
2022/11/22 03:58:33;;;;;;;5.57;2.20;;;5.90;89.80;;;;;;5041824;28;20128;-68
2022/11/22 04:01:00;;;;;;;4.90;2.35;;;5.90;89.70;;;;;;5044376;28;20149;-60
2022/11/22 04:03:28;;;;;;;6.05;2.90;;;5.90;89.70;;;;;;5043964;28;20041;-60
2022/11/22 04:05:55;;;;;;;4.30;2.20;;;5.90;89.60;;;;;;5044944;28;20411;-65
2022/11/22 04:08:24;;;;;;;4.53;2.10;;;5.90;89.70;;;;;;5046537;28;20040;-65
2022/11/22 04:10:51;;;;;;;4.75;2.30;;;5.90;89.70;;;;;;5044778;28;20049;-61
2022/11/22 04:13:19;;;;;;;4.47;2.53;;;6.00;89.70;;;;;;5043590;28;20063;-60
2022/11/22 04:15:45;;;;;;;4.93;2.30;;;5.90;89.80;;;;;;5042601;28;20057;-61
2022/11/22 04:18:12;;;;;;;4.72;2.15;;;5.90;89.90;;;;;;5044533;28;20048;-59
2022/11/22 04:23:27;;;;;;;5.18;2.42;;;6.00;90.00;;;;;;5045450;28;20403;-59
2022/11/22 04:25:54;;;;;;;5.63;2.45;;;5.90;90.00;;;;;;5040915;28;20136;-61
2022/11/22 04:28:23;;;;;;;5.75;2.50;;;6.00;90.10;;;;;;5044304;28;20048;-61
2022/11/22 04:33:35;;;;;;;5.32;2.47;;;5.90;90.20;;;;;;5046767;28;20518;-60
2022/11/22 04:36:03;;;;;;;4.82;2.25;;;6.00;90.10;;;;;;5047005;28;20059;-68
2022/11/22 04:38:31;;;;;;;5.55;1.98;;;5.90;90.20;;;;;;5046687;28;20132;-69
2022/11/22 04:40:58;;;;;;;3.35;1.80;;;5.90;90.20;;;;;;5049161;28;20048;-68
2022/11/22 04:46:13;;;;;;;5.57;2.45;;;6.00;90.20;;;;;;5047139;28;20053;-62
2022/11/22 04:48:40;;;;;;;4.18;2.33;;;6.00;90.20;;;;;;5047244;28;20554;-63
2022/11/22 04:53:53;;;;;;;4.68;2.40;;;6.00;90.20;;;;;;5046703;28;20186;-63
2022/11/22 04:56:20;;;;;;;6.05;2.55;;;6.00;90.20;;;;;;5051687;28;20053;-63
2022/11/22 04:58:50;;;;;;;7.40;2.83;;;6.00;90.20;;;;;;5048109;28;20048;-61
2022/11/22 05:01:17;;;;;;;4.88;2.90;;;6.00;90.00;;;;;;5047250;28;20487;-62
2022/11/22 05:03:44;;;;;;;4.68;2.67;;;6.00;90.20;;;;;;5049647;28;20055;-61
2022/11/22 05:06:13;;;;;;;6.60;2.45;;;6.00;89.80;;;;;;5049727;28;20080;-60
2022/11/22 05:08:42;;;;;;;;;;;6.00;90.00;;;;;;5052065;28;20056;-60
2022/11/22 05:11:10;;;;;;;4.05;2.45;;;6.00;90.00;;;;;;5046838;28;19929;-62
2022/11/22 05:13:39;;;;;;;6.88;3.00;;;6.00;90.00;;;;;;5047666;28;20041;-59
2022/11/22 05:16:08;;;;;;;6.95;3.25;;;6.00;90.10;;;;;;5044431;28;20719;-70
2022/11/22 05:18:35;;;;;;;4.80;2.67;;;6.00;90.20;;;;;;5047301;28;20482;-71
2022/11/22 05:21:04;;;;;;;5.70;3.10;;;6.00;90.20;;;;;;5051563;28;20049;-71
2022/11/22 05:26:17;;;;;;;6.15;3.15;;;6.00;90.20;;;;;;5049068;28;20049;-71
2022/11/22 05:28:44;;;;;;;5.03;2.97;;;6.00;90.10;;;;;;5049843;28;20045;-71
2022/11/22 05:31:13;;;;;;;4.30;2.60;;;6.10;90.00;;;;;;5047465;28;20049;-61
2022/11/22 05:33:42;;;;;;;6.57;3.00;;;6.00;90.10;;;;;;5048839;28;20047;-61
2022/11/22 05:36:10;;;;;;;5.95;3.28;;;6.10;90.20;;;;;;5042399;28;20120;-66
2022/11/22 05:38:37;;;;;;;6.20;3.15;;;6.10;90.30;;;;;;5045341;28;20070;-67
2022/11/22 05:41:05;;;;;;;5.40;2.55;;;6.10;90.00;;;;;;5045524;28;20525;-68
2022/11/22 05:43:34;;;;;;;5.65;2.90;;;6.00;90.30;;;;;;5048086;28;20053;-68
2022/11/22 05:46:09;;;;;;;5.88;2.55;;;6.10;90.40;;;;;;5045613;28;20583;-64
2022/11/22 05:48:37;;;;;;;4.28;2.30;;;6.00;90.20;;;;;;5048724;28;20045;-65
2022/11/22 05:51:05;;;;;;;6.55;2.63;;;6.10;90.30;;;;;;5046726;28;20037;-61
2022/11/22 05:53:32;;;;;;;8.02;3.00;;;6.10;90.30;;;;;;5044369;28;20060;-60
2022/11/22 05:56:04;;;;;;;5.43;2.70;;;6.10;90.30;;;;;;5047506;28;20052;-64
2022/11/22 05:58:30;;;;;;;5.63;2.80;;;6.10;90.40;;;;;;5046849;28;20385;-63
2022/11/22 06:01:04;;;;;;;4.90;2.70;;;6.10;90.40;;;;;;5043265;28;20052;-60
2022/11/22 06:03:32;;;;;;;5.22;2.55;;;6.10;90.40;;;;;;5042462;28;20423;-59
2022/11/22 06:05:58;;;;;;;6.82;2.92;;;6.10;90.40;;;;;;5042569;28;20049;-60
2022/11/22 06:08:28;;;;;;;5.57;3.03;;;6.10;90.40;;;;;;5048791;28;20049;-59
2022/11/22 06:10:55;;;;;;;6.25;2.80;;;6.00;90.50;;;;;;5049088;28;20053;-60
2022/11/22 06:13:22;;;;;;;6.45;2.65;;;6.00;90.50;;;;;;5047952;28;20041;-60
2022/11/22 06:15:49;;;;;;;6.68;2.63;;;6.00;90.60;;;;;;5046407;28;20045;-65
2022/11/22 06:18:18;;;;;;;5.75;3.10;;;6.00;90.70;;;;;;5048313;28;20119;-65
2022/11/22 06:20:44;;;;;;;6.53;3.25;;;5.90;90.50;;;;;;5046607;28;20505;-61
2022/11/22 06:23:11;;;;;;;5.25;3.00;;;6.00;90.70;;;;;;5043067;28;20119;-63
2022/11/22 06:25:38;;;;;;;6.05;2.83;;;6.00;90.70;;;;;;5045905;28;20140;-60
2022/11/22 06:28:05;;;;;;;6.68;3.38;;;6.00;90.70;;;;;;5048767;28;20064;-59
2022/11/22 06:30:32;;;;;;;7.70;3.47;;;6.00;90.80;;;;;;5048449;28;20063;-59
2022/11/22 06:32:59;;;;;;;6.90;3.10;;;6.00;90.80;;;;;;5049895;28;20049;-60
2022/11/22 06:35:27;;;;;;;8.38;3.50;;;6.00;90.80;;;;;;5050091;28;20049;-60
2022/11/22 06:37:54;;;;;;;5.82;3.38;;;6.00;90.70;;;;;;5050225;28;20124;-59
2022/11/22 06:40:21;;;;;;;7.35;3.40;;;6.00;90.70;;;;;;5046512;28;20057;-65
2022/11/22 06:42:48;;;;;;;7.30;3.45;;;6.00;90.70;;;;;;5047129;28;20049;-64
2022/11/22 06:45:15;;;;;;;6.13;3.22;;;6.00;90.70;;;;;;5046370;28;20458;-61
2022/11/22 06:47:42;;;;;;;5.35;3.10;;;6.00;90.70;;;;;;5046963;28;20519;-60
2022/11/22 06:50:09;;;;;;;7.45;3.50;;;6.00;90.80;;;;;;5048499;28;20048;-60
2022/11/22 06:52:37;;;;;;;9.98;3.30;;;6.00;90.70;;;;;;5047131;28;20037;-59
2022/11/22 06:55:05;;;;;;;5.40;2.90;;;6.00;90.70;;;;;;5048519;28;20139;-60
2022/11/22 06:57:32;;;;;;;6.75;3.00;;;6.10;90.70;;;;;;5047119;28;20070;-60
2022/11/22 06:59:59;;;;;;;5.07;2.80;;;6.10;90.70;;;;;;5049443;28;20053;-60
2022/11/22 07:02:26;;;;;;;5.35;3.22;;;6.10;90.70;;;;;;5043135;28;20052;-61
2022/11/22 07:04:53;;;;;;;9.48;3.42;;;6.00;90.80;;;;;;5048636;28;20197;-59
2022/11/22 07:07:20;;;;;;;6.45;2.83;;;6.10;90.90;;;;;;5049901;28;20040;-72
2022/11/22 07:09:48;;;;;;;5.57;3.08;;;6.10;90.90;;;;;;5049770;28;20144;-70
2022/11/22 07:12:15;;;;;;;6.18;2.85;;;6.10;90.90;;;;;;5043467;28;20542;-70
2022/11/22 07:14:42;;;;;;;7.20;2.90;;;6.10;90.90;;;;;;5045711;28;20087;-71
2022/11/22 07:17:09;;;;;;;6.45;3.50;;;6.10;90.80;;;;;;5046934;28;20127;-68
2022/11/22 07:19:36;;;;;;;6.47;3.10;;;6.10;90.90;;;;;;5047476;28;20623;-67
2022/11/22 07:22:03;;;;;;;9.43;3.15;;;6.10;90.80;;;;;;5045474;28;20045;-65
2022/11/22 07:24:30;;;;;;;9.43;5.00;;;6.10;90.90;;;;;;5043085;28;20051;-65
2022/11/22 07:26:58;;;;;;;14.80;6.90;;;6.10;90.90;;;;;;5042430;28;20041;-58
2022/11/22 07:29:25;;;;;;;18.05;9.98;;;6.10;91.00;;;;;;5044602;28;20044;-60
2022/11/22 07:31:52;;;;;;;17.55;10.82;;;6.10;90.90;;;;;;5045161;28;20056;-65
2022/11/22 07:34:19;;;;;;;23.42;11.43;;;6.10;91.00;;;;;;5045708;28;20045;-64
2022/11/22 07:36:46;;;;;;;23.23;12.40;;;6.10;90.90;;;;;;5045826;28;20488;-65
2022/11/22 07:39:13;;;;;;;18.42;10.75;;;6.20;90.90;;;;;;5045608;28;20048;-66
2022/11/22 07:41:39;;;;;;;17.23;8.90;;;6.20;91.00;;;;;;5043620;28;20072;-63
2022/11/22 07:44:08;;;;;;;16.15;9.15;;;6.20;91.00;;;;;;5044707;28;20453;-65
2022/11/22 07:46:35;;;;;;;16.70;8.43;;;6.20;91.10;;;;;;5046051;28;20047;-64
2022/11/22 07:49:02;;;;;;;14.23;7.78;;;6.20;91.10;;;;;;5045906;28;20041;-65
2022/11/22 07:51:29;;;;;;;14.30;7.65;;;6.20;91.10;;;;;;5046674;28;20077;-63
2022/11/22 07:53:56;;;;;;;13.60;6.85;;;6.20;91.10;;;;;;5045352;28;20084;-62
2022/11/22 07:56:24;;;;;;;11.60;6.72;;;6.30;91.10;;;;;;5046916;28;20069;-63
2022/11/22 07:58:51;;;;;;;12.93;6.57;;;6.30;91.10;;;;;;5049670;28;20128;-61
2022/11/22 08:01:20;;;;;;;9.13;5.88;;;6.40;91.20;;;;;;5045339;28;20045;-62
2022/11/22 08:03:47;;;;;;;11.65;5.32;;;6.40;91.10;;;;;;5041629;28;20044;-61
2022/11/22 08:06:15;;;;;;;8.73;4.50;;;6.40;91.20;;;;;;5046410;28;20075;-60
2022/11/22 08:08:42;;;;;;;11.80;5.30;;;6.40;91.00;;;;;;5046298;28;20491;-62
2022/11/22 08:11:10;;;;;;;10.57;5.13;;;6.50;91.00;;;;;;5045708;28;20044;-69
2022/11/22 08:13:37;;;;;;;10.98;5.65;;;6.50;90.90;;;;;;5044680;28;20052;-70
2022/11/22 08:16:07;;;;;;;11.63;6.03;;;6.60;91.10;;;;;;5044059;28;20129;-70
2022/11/22 08:18:37;;;;;;;15.23;7.72;;;6.60;91.20;;;;;;5050696;28;20037;-70
2022/11/22 08:21:09;;;;;;;12.63;7.03;;;6.60;91.00;;;;;;5049328;28;20547;-60
2022/11/22 08:23:37;;;;;;;15.10;8.00;;;6.70;90.90;;;;;;5050745;28;20075;-59
2022/11/22 08:26:05;;;;;;;13.75;7.35;;;6.70;90.80;;;;;;5049659;28;20041;-65
2022/11/22 08:28:33;;;;;;;14.40;7.55;;;6.70;90.90;;;;;;5050691;28;20049;-64
2022/11/22 08:31:02;;;;;;;13.30;7.20;;;6.70;90.90;;;;;;5048849;28;20052;-60
2022/11/22 08:33:29;;;;;;;13.32;6.80;;;6.80;90.90;;;;;;5050013;28;20153;-59
2022/11/22 08:35:57;;;;;;;12.15;6.85;;;6.80;91.00;;;;;;5051072;28;20041;-58
2022/11/22 08:38:24;;;;;;;14.27;6.50;;;6.80;90.90;;;;;;5050213;28;20045;-59
2022/11/22 08:40:51;;;;;;;11.93;6.10;;;6.80;91.00;;;;;;5049801;28;20045;-64
2022/11/22 08:43:18;;;;;;;11.43;6.43;;;6.90;91.00;;;;;;5050043;28;20479;-64
2022/11/22 08:45:46;;;;;;;11.23;5.75;;;6.90;91.00;;;;;;5049179;28;20055;-60
2022/11/22 08:48:12;;;;;;;11.50;4.68;;;6.90;91.00;;;;;;5049827;28;20127;-62
2022/11/22 08:50:39;;;;;;;9.18;4.43;;;6.90;91.00;;;;;;5048876;28;20059;-59
2022/11/22 08:53:08;;;;;;;9.80;4.55;;;6.90;91.10;;;;;;5045627;28;20155;-57
2022/11/22 08:55:40;;;;;;;10.93;3.83;;;7.00;91.20;;;;;;5048701;28;20045;-60
2022/11/22 08:58:06;;;;;;;8.80;3.75;;;7.00;91.20;;;;;;5048102;28;20056;-60
2022/11/22 09:00:34;;;;;;;10.80;3.83;;;7.00;91.10;;;;;;5046861;28;20772;-64
2022/11/22 09:03:01;;;;;;;9.02;3.10;;;7.00;91.10;;;;;;5044089;28;20052;-64
2022/11/22 09:05:28;;;;;;;7.18;3.50;;;7.10;91.10;;;;;;5045180;28;20069;-60
2022/11/22 09:07:54;;;;;;;9.85;3.35;;;7.10;91.00;;;;;;5049526;28;20041;-59
2022/11/22 09:10:23;;;;;;;7.18;3.20;;;7.20;90.90;;;;;;5047942;28;20471;-70
2022/11/22 09:12:50;;;;;;;9.38;3.17;;;7.20;90.90;;;;;;5049846;28;20048;-70
2022/11/22 09:15:17;;;;;;;10.20;3.58;;;7.20;90.80;;;;;;5045529;28;20056;-64
2022/11/22 09:17:44;;;;;;;9.68;3.33;;;7.20;90.70;;;;;;5049955;28;20120;-65
2022/11/22 09:20:15;;;;;;;6.43;2.80;;;7.30;90.70;;;;;;5044941;28;20056;-62
2022/11/22 09:22:42;;;;;;;8.57;2.42;;;7.40;90.60;;;;;;5047772;28;20111;-67
2022/11/22 09:25:09;;;;;;;4.97;2.35;;;7.30;90.60;;;;;;5045624;28;20152;-67
2022/11/22 09:27:39;;;;;;;6.60;2.20;;;7.40;90.60;;;;;;5049773;28;20041;-67
2022/11/22 09:30:07;;;;;;;7.38;2.50;;;7.40;90.50;;;;;;5042077;28;20045;-66
2022/11/22 09:32:34;;;;;;;7.85;2.25;;;7.40;90.40;;;;;;5046024;28;20044;-68
2022/11/22 09:35:01;;;;;;;5.90;1.98;;;7.40;90.30;;;;;;5049095;28;20053;-67
2022/11/22 09:37:28;;;;;;;11.45;2.42;;;7.50;90.30;;;;;;5048284;28;20128;-68
2022/11/22 09:39:55;;;;;;;9.73;1.83;;;7.50;90.20;;;;;;5049421;28;20069;-64
2022/11/22 09:42:36;;;;;;;6.30;2.22;;;7.50;90.10;;;;;;5048219;28;20526;-61
2022/11/22 09:46:01;;;;;;;8.27;2.80;;;7.60;90.10;;;;;;5051283;28;20129;-61
2022/11/22 09:48:44;;;;;;;4.65;2.10;;;7.60;90.10;;;;;;4975599;28;20050;-60
2022/11/22 09:51:15;;;;;;;6.60;2.05;;;7.70;90.00;;;;;;5041118;28;20128;-67
2022/11/22 09:53:46;;;;;;;7.25;1.88;;;7.70;90.00;;;;;;5049885;28;20052;-68
2022/11/22 09:56:16;;;;;;;6.53;1.88;;;7.70;89.80;;;;;;5051196;28;20092;-61
2022/11/22 09:58:47;;;;;;;8.52;2.03;;;7.70;89.50;;;;;;5049567;28;20057;-60
2022/11/22 10:01:20;;;;;;;5.70;1.77;;;7.70;89.40;;;;;;5048870;28;20049;-68
2022/11/22 10:03:54;;;;;;;7.97;2.10;;;7.70;89.20;;;;;;5045600;28;20461;-67
2022/11/22 10:06:25;;;;;;;5.78;1.33;;;7.80;89.20;;;;;;5048089;28;20057;-67
2022/11/22 10:09:06;;;;;;;7.80;1.73;;;7.80;89.00;;;;;;5045723;28;20144;-67
2022/11/22 10:11:38;;;;;;;7.72;1.77;;;7.80;88.90;;;;;;5050245;28;20053;-60
2022/11/22 10:14:12;;;;;;;8.82;1.90;;;7.80;88.60;;;;;;5048588;28;20045;-61
2022/11/22 10:16:42;;;;;;;7.07;1.60;;;7.80;88.70;;;;;;5045086;28;20045;-59
2022/11/22 10:19:13;;;;;;;;;;;7.90;88.40;;;;;;5049411;28;20144;-59
2022/11/22 10:21:41;;;;;;;6.57;1.23;;;7.90;88.30;;;;;;5048950;28;19924;-69
2022/11/22 10:24:14;;;;;;;6.82;1.80;;;7.90;88.50;;;;;;5050111;28;20098;-71
2022/11/22 10:26:41;;;;;;;5.53;1.42;;;7.80;88.40;;;;;;5047983;28;20053;-58
2022/11/22 10:29:26;;;;;;;6.63;1.35;;;7.90;87.70;;;;;;5048818;28;20048;-60
2022/11/22 10:32:03;;;;;;;6.70;1.52;;;7.90;87.50;;;;;;5045586;28;20522;-61
2022/11/22 10:34:48;;;;;;;6.03;1.55;;;7.90;87.20;;;;;;5048669;28;20304;-61
2022/11/22 10:37:24;;;;;;;8.57;1.67;;;7.90;87.60;;;;;;5048201;28;20045;-61
2022/11/22 10:40:06;;;;;;;10.27;2.13;;;7.90;87.00;;;;;;5045302;28;20041;-61
2022/11/22 10:43:10;;;;;;;11.10;3.20;;;7.90;87.40;;;;;;5046317;28;20462;-61
2022/11/22 10:45:41;;;;;;;23.15;6.30;;;8.00;86.90;;;;;;5024815;28;20059;-59
2022/11/22 10:48:19;;;;;;;15.13;4.22;;;8.00;86.80;;;;;;5045096;28;20041;-60
2022/11/22 10:50:57;;;;;;;13.13;3.95;;;7.90;87.00;;;;;;5043215;28;20060;-60
2022/11/22 10:53:33;;;;;;;9.82;2.47;;;7.90;86.60;;;;;;5046637;28;20048;-61
2022/11/22 10:56:09;;;;;;;4.55;1.70;;;7.90;86.00;;;;;;5045414;28;20488;-62
2022/11/22 10:58:46;;;;;;;10.38;1.90;;;7.90;86.70;;;;;;5040653;28;20056;-61
2022/11/22 11:01:20;;;;;;;6.88;1.98;;;7.90;85.90;;;;;;5046119;28;20171;-64
2022/11/22 11:03:51;;;;;;;7.47;1.55;;;7.90;85.80;;;;;;5044470;28;20506;-65
2022/11/22 11:06:23;;;;;;;9.80;1.70;;;7.90;86.30;;;;;;5042891;28;20053;-62
2022/11/22 11:08:53;;;;;;;8.70;1.80;;;7.90;86.00;;;;;;5045039;28;20139;-63
2022/11/22 11:11:21;;;;;;;;;;;7.90;86.10;;;;;;5041533;28;20055;-62
2022/11/22 11:13:54;;;;;;;7.82;1.38;;;7.90;85.90;;;;;;5046133;28;19935;-61
2022/11/22 11:16:23;;;;;;;6.97;1.63;;;8.00;85.40;;;;;;5044592;28;20438;-61
2022/11/22 11:18:56;;;;;;;4.50;1.38;;;8.00;85.20;;;;;;5046510;28;20090;-60
2022/11/22 11:21:27;;;;;;;6.22;1.70;;;8.10;85.30;;;;;;5044133;28;20052;-71
2022/11/22 11:23:54;;;;;;;6.53;1.73;;;8.10;85.00;;;;;;5045810;28;20102;-71
2022/11/22 11:26:24;;;;;;;6.18;1.42;;;8.10;84.80;;;;;;5043670;28;20060;-60
2022/11/22 11:28:51;;;;;;;9.45;2.38;;;8.10;85.00;;;;;;5043801;28;20132;-61
2022/11/22 11:31:20;;;;;;;4.07;1.30;;;8.10;84.90;;;;;;5037754;28;20045;-59
2022/11/22 11:33:47;;;;;;;5.20;1.50;;;8.10;84.30;;;;;;5047161;28;20060;-59
2022/11/22 11:36:18;;;;;;;4.72;1.10;;;8.10;84.30;;;;;;5047836;28;20044;-68
2022/11/22 11:38:51;;;;;;;;;;;8.20;84.30;;;;;;5049542;28;20045;-69
2022/11/22 11:41:28;;;;;;;5.50;1.30;;;8.20;84.30;;;;;;5042738;28;19931;-60
2022/11/22 11:43:57;;;;;;;6.60;1.65;;;8.30;84.30;;;;;;5045861;28;20116;-60
2022/11/22 11:46:25;;;;;;;7.30;1.50;;;8.30;84.40;;;;;;5044489;28;20044;-71
2022/11/22 11:48:53;;;;;;;8.48;1.25;;;8.30;84.20;;;;;;5043803;28;20051;-72
2022/11/22 11:51:30;;;;;;;7.55;1.83;;;8.30;84.20;;;;;;5049224;28;20049;-60
2022/11/22 11:54:01;;;;;;;7.25;1.75;;;8.30;84.20;;;;;;5051394;28;20052;-59
2022/11/22 11:56:32;;;;;;;9.25;1.77;;;8.30;84.10;;;;;;5051078;28;20095;-64
2022/11/22 11:59:06;;;;;;;5.85;1.65;;;8.30;83.90;;;;;;5051066;28;20083;-65
2022/11/22 12:01:34;;;;;;;3.80;1.40;;;8.30;83.90;;;;;;5048772;28;20147;-61
2022/11/22 12:04:04;;;;;;;6.03;1.58;;;8.20;83.90;;;;;;5048727;28;20510;-60
2022/11/22 12:06:32;;;;;;;6.43;1.83;;;8.30;83.90;;;;;;5049052;28;20401;-62
2022/11/22 12:09:26;;;;;;;3.97;1.27;;;8.20;84.40;;;;;;5051008;28;20049;-62
2022/11/22 12:11:53;;;;;;;5.88;1.65;;;8.20;84.50;;;;;;5050925;28;20055;-63
2022/11/22 12:14:25;;;;;;;4.63;1.38;;;8.30;83.60;;;;;;5049616;28;20035;-63
2022/11/22 12:16:58;;;;;;;6.47;1.48;;;8.30;83.10;;;;;;5047545;28;20484;-60
2022/11/22 12:19:32;;;;;;;8.45;1.65;;;8.30;83.00;;;;;;5050453;28;20039;-61
2022/11/22 12:22:03;;;;;;;4.65;1.20;;;8.30;83.10;;;;;;5050217;28;20069;-64
2022/11/22 12:24:40;;;;;;;6.18;1.48;;;8.30;83.30;;;;;;5046298;28;20048;-65
2022/11/22 12:27:10;;;;;;;6.20;1.60;;;8.40;82.50;;;;;;5046716;28;20059;-65
2022/11/22 12:29:39;;;;;;;4.63;1.58;;;8.40;82.70;;;;;;5048478;28;20436;-64
2022/11/22 12:32:16;;;;;;;6.97;1.53;;;8.40;83.30;;;;;;5047701;28;20080;-59
2022/11/22 12:34:51;;;;;;;4.70;1.10;;;8.40;83.10;;;;;;5049257;28;20124;-60
2022/11/22 12:37:21;;;;;;;4.53;1.25;;;8.30;82.20;;;;;;5049818;28;20045;-61
2022/11/22 12:39:53;;;;;;;4.65;1.33;;;8.40;82.90;;;;;;5048242;28;20052;-62
2022/11/22 12:42:24;;;;;;;6.25;1.52;;;8.40;82.50;;;;;;5046357;28;20154;-62
2022/11/22 12:44:57;;;;;;;5.60;1.20;;;8.40;82.70;;;;;;5043251;28;20044;-62
2022/11/22 12:47:28;;;;;;;5.03;1.30;;;8.30;82.30;;;;;;5050119;28;20049;-59
2022/11/22 12:49:59;;;;;;;4.13;1.52;;;8.30;83.10;;;;;;5050025;28;20091;-61
2022/11/22 12:52:34;;;;;;;4.38;1.40;;;8.30;82.60;;;;;;5047892;28;20045;-60
2022/11/22 12:55:09;;;;;;;9.05;1.67;;;8.30;81.70;;;;;;5051430;28;20045;-61
2022/11/22 12:57:40;;;;;;;7.30;1.75;;;8.30;82.10;;;;;;5052403;28;20452;-59
2022/11/22 13:00:15;;;;;;;5.75;1.73;;;8.30;82.20;;;;;;5047891;28;20725;-60
2022/11/22 13:02:54;;;;;;;7.43;2.10;;;8.30;82.40;;;;;;5050536;28;20051;-60
2022/11/22 13:05:25;;;;;;;4.55;1.35;;;8.30;82.30;;;;;;5051733;28;20491;-64
2022/11/22 13:07:58;;;;;;;6.88;1.70;;;8.30;82.90;;;;;;5050002;28;20043;-60
2022/11/22 13:10:36;;;;;;;7.07;2.38;;;8.20;83.20;;;;;;5049005;28;20049;-69
2022/11/22 13:13:04;;;;;;;5.78;2.08;;;8.20;82.50;;;;;;5051780;28;20049;-69
2022/11/22 13:15:35;;;;;;;8.18;1.85;;;8.20;82.90;;;;;;5048590;28;20045;-68
2022/11/22 13:18:02;;;;;;;5.25;1.90;;;8.20;82.90;;;;;;5050259;28;20440;-68
2022/11/22 13:20:34;;;;;;;5.07;1.52;;;8.20;82.10;;;;;;5048628;28;20049;-62
2022/11/22 13:23:20;;;;;;;6.85;2.15;;;8.20;82.00;;;;;;5051803;28;20045;-63